Time;durP1;ratioP1;P1;durP2;ratioP2;P2;SDS_P1;SDS_P2;PMS_P1;PMS_P2;Temp;Humidity;BMP_temperature;BMP_pressure;BME280_temperature;BME280_humidity;BME280_pressure;Samples;Min_cycle;Max_cycle;Signal;HPM_P1;HPM_P2
2023/12/22 00:01:23;;;;;;;6.07;2.80;;;;;;;5.55;64.43;97606.25;5032829;28;20178;-86
2023/12/22 00:03:49;;;;;;;5.60;2.57;;;;;;;5.69;63.66;97604.63;5032911;28;20188;-86
2023/12/22 00:06:16;;;;;;;3.77;2.27;;;;;;;5.57;64.38;97604.44;5032779;28;20184;-86
2023/12/22 00:08:43;;;;;;;5.93;2.63;;;;;;;5.42;64.44;97610.47;5015399;28;20182;-86
2023/12/22 00:11:08;;;;;;;12.03;4.77;;;;;;;5.51;64.60;97594.38;5032559;28;20237;-87
2023/12/22 00:13:34;;;;;;;5.27;2.87;;;;;;;5.66;64.35;97590.06;5032401;28;20478;-86
2023/12/22 00:16:01;;;;;;;6.37;2.83;;;;;;;5.54;64.53;97583.81;5032686;28;20514;-86
2023/12/22 00:18:27;;;;;;;7.90;4.00;;;;;;;5.61;64.45;97593.88;5032683;28;20178;-86
2023/12/22 00:20:53;;;;;;;7.23;3.73;;;;;;;5.64;64.34;97591.91;5014965;28;20297;-87
2023/12/22 00:23:19;;;;;;;8.27;2.70;;;;;;;5.70;63.80;97588.13;5015251;28;20190;-86
2023/12/22 00:25:46;;;;;;;6.43;3.13;;;;;;;5.64;63.15;97583.28;5033195;28;20182;-86
2023/12/22 00:28:11;;;;;;;7.10;3.37;;;;;;;5.53;62.73;97587.34;5015046;28;20182;-86
2023/12/22 00:30:38;;;;;;;15.27;6.50;;;;;;;5.38;63.21;97582.16;5033039;28;20543;-86
2023/12/22 00:33:04;;;;;;;13.37;6.33;;;;;;;5.45;63.22;97571.34;5018600;28;20328;-86
2023/12/22 00:35:31;;;;;;;23.63;5.93;;;;;;;5.56;62.92;97566.38;5036122;28;20201;-86
2023/12/22 00:37:57;;;;;;;14.63;5.97;;;;;;;5.57;62.71;97567.22;5036092;28;20181;-86
2023/12/22 00:40:24;;;;;;;24.63;9.53;;;;;;;5.62;62.93;97564.34;5035702;28;20641;-86
2023/12/22 00:42:51;;;;;;;17.93;6.13;;;;;;;5.59;63.00;97574.00;5035827;28;20265;-86
2023/12/22 00:45:18;;;;;;;10.70;5.87;;;;;;;5.40;62.96;97565.56;5018329;28;20340;-86
2023/12/22 00:47:44;;;;;;;12.33;4.57;;;;;;;5.34;62.97;97568.53;5036051;28;20174;-86
2023/12/22 00:50:10;;;;;;;11.73;5.17;;;;;;;5.42;62.89;97557.72;5018333;28;20177;-86
2023/12/22 00:52:36;;;;;;;12.23;5.10;;;;;;;5.24;62.62;97554.38;5018371;28;20614;-86
2023/12/22 00:55:03;;;;;;;10.27;5.33;;;;;;;5.16;63.03;97533.22;5018337;28;20546;-86
2023/12/22 00:57:30;;;;;;;12.60;5.50;;;;;;;5.04;63.26;97523.50;5035128;28;20243;-86
2023/12/22 00:59:57;;;;;;;15.10;5.57;;;;;;;5.06;63.26;97519.06;5017759;28;20198;-86
2023/12/22 01:02:22;;;;;;;15.20;7.33;;;;;;;5.07;63.55;97518.13;5035168;28;20661;-86
2023/12/22 01:04:49;;;;;;;17.57;7.83;;;;;;;5.15;63.32;97502.97;5035617;28;20268;-86
2023/12/22 01:07:15;;;;;;;13.37;5.67;;;;;;;5.22;63.29;97504.28;5035638;28;20261;-86
2023/12/22 01:09:42;;;;;;;13.77;7.03;;;;;;;5.30;63.16;97507.28;5035811;28;20174;-85
2023/12/22 01:12:07;;;;;;;14.00;7.20;;;;;;;5.31;62.83;97510.72;5035452;28;20189;-86
2023/12/22 01:14:34;;;;;;;14.17;7.90;;;;;;;5.35;62.60;97500.06;5017222;28;20179;-87
2023/12/22 01:17:00;;;;;;;16.00;6.23;;;;;;;5.15;62.96;97495.19;5035188;28;20205;-87
2023/12/22 01:19:27;;;;;;;15.57;6.63;;;;;;;4.96;63.81;97489.34;5017555;28;20208;-87
2023/12/22 01:21:54;;;;;;;14.33;6.30;;;;;;;5.14;63.92;97487.44;5035283;28;20180;-87
2023/12/22 01:24:20;;;;;;;13.50;5.90;;;;;;;5.10;63.51;97484.22;5035065;28;20221;-86
2023/12/22 01:26:45;;;;;;;14.77;4.97;;;;;;;5.08;64.06;97475.69;5035172;28;20208;-86
2023/12/22 01:29:11;;;;;;;9.53;4.80;;;;;;;5.05;64.67;97465.47;5035141;28;20206;-86
2023/12/22 01:31:38;;;;;;;10.57;4.37;;;;;;;4.98;65.14;97461.53;5035193;28;20537;-87
2023/12/22 01:34:05;;;;;;;8.60;3.57;;;;;;;4.92;65.13;97448.91;5017590;28;20182;-86
2023/12/22 01:36:34;;;;;;;10.50;3.47;;;;;;;4.86;65.28;97446.66;5034819;28;20245;-87
2023/12/22 01:38:59;;;;;;;8.90;4.17;;;;;;;4.77;65.77;97436.81;5035138;28;20261;-86
2023/12/22 01:41:24;;;;;;;7.63;3.30;;;;;;;4.95;65.55;97438.38;5034536;28;20281;-87
2023/12/22 01:43:50;;;;;;;6.77;2.93;;;;;;;5.06;65.78;97435.97;5034233;28;20185;-86
2023/12/22 01:46:16;;;;;;;9.67;4.00;;;;;;;4.98;65.65;97436.41;5034675;28;20634;-86
2023/12/22 01:48:43;;;;;;;8.83;2.70;;;;;;;5.03;65.90;97430.13;5034006;28;20187;-86
2023/12/22 01:51:10;;;;;;;6.93;3.13;;;;;;;5.07;65.54;97422.06;5016945;28;20693;-87
2023/12/22 01:53:36;;;;;;;6.97;3.17;;;;;;;5.08;65.37;97410.78;5035199;28;20178;-87
2023/12/22 01:56:02;;;;;;;5.63;2.93;;;;;;;5.07;65.66;97414.28;5016531;28;20708;-87
2023/12/22 01:58:29;;;;;;;7.47;2.60;;;;;;;5.17;65.39;97418.00;5017115;28;20196;-86
2023/12/22 02:00:56;;;;;;;6.57;2.90;;;;;;;5.22;64.96;97431.56;5034722;28;20289;-87
2023/12/22 02:03:23;;;;;;;7.00;3.00;;;;;;;5.18;65.03;97424.88;5016828;28;20218;-87
2023/12/22 02:05:50;;;;;;;5.17;2.43;;;;;;;5.22;64.76;97421.16;5016866;28;20199;-87
2023/12/22 02:08:18;;;;;;;6.03;2.77;;;;;;;5.31;64.32;97431.03;5033755;28;20188;-87
2023/12/22 02:10:44;;;;;;;8.23;2.87;;;;;;;5.31;64.53;97427.59;5034170;28;20225;-87
2023/12/22 02:13:10;;;;;;;5.10;2.47;;;;;;;5.24;65.16;97424.50;5016602;28;20681;-87
2023/12/22 02:15:38;;;;;;;4.03;2.20;;;;;;;5.24;65.53;97427.09;5016786;28;20709;-87
2023/12/22 02:18:16;;;;;;;4.63;2.57;;;;;;;5.23;65.08;97420.25;5034169;28;20668;-87
2023/12/22 02:20:44;;;;;;;6.73;2.80;;;;;;;5.23;65.63;97417.66;5034349;28;20190;-86
2023/12/22 02:23:10;;;;;;;7.20;3.13;;;;;;;5.17;65.44;97412.81;5034097;28;20240;-87
2023/12/22 02:25:37;;;;;;;5.97;2.50;;;;;;;5.13;65.25;97415.69;5016355;28;20612;-87
2023/12/22 02:28:10;;;;;;;7.90;3.33;;;;;;;4.97;66.00;97410.56;5033225;28;20214;-87
2023/12/22 02:31:17;;;;;;;4.40;2.57;;;;;;;5.08;65.93;97412.53;5016603;28;20256;-86
2023/12/22 02:33:47;;;;;;;5.80;2.40;;;;;;;4.92;66.27;97415.16;5029195;28;20198;-87
2023/12/22 02:36:17;;;;;;;6.33;2.63;;;;;;;4.86;66.96;97400.78;5016400;28;20183;-87
2023/12/22 02:38:45;;;;;;;9.40;2.93;;;;;;;4.97;66.71;97393.22;5016404;28;20205;-86
2023/12/22 02:41:12;;;;;;;6.50;2.73;;;;;;;4.98;67.36;97391.44;5033546;28;20277;-87
2023/12/22 02:43:37;;;;;;;3.70;2.37;;;;;;;5.03;67.33;97389.44;5028376;28;20193;-87
2023/12/22 02:46:04;;;;;;;5.33;2.23;;;;;;;5.10;67.08;97380.34;5033530;28;20272;-87
2023/12/22 02:48:29;;;;;;;4.60;2.63;;;;;;;5.12;67.47;97377.66;5033922;28;20244;-87
2023/12/22 02:50:55;;;;;;;8.97;3.00;;;;;;;5.23;66.75;97375.28;5033639;28;20182;-87
2023/12/22 02:53:22;;;;;;;9.93;3.27;;;;;;;5.17;66.46;97373.03;5016241;28;20668;-87
2023/12/22 02:55:47;;;;;;;44.20;11.70;;;;;;;5.11;66.90;97368.22;5032684;28;20201;-87
2023/12/22 02:58:13;;;;;;;54.23;11.43;;;;;;;5.17;66.57;97358.28;5016104;28;20184;-87
2023/12/22 03:00:40;;;;;;;28.43;7.70;;;;;;;5.14;66.95;97353.28;5033307;28;20247;-87
2023/12/22 03:03:06;;;;;;;17.97;4.57;;;;;;;5.10;66.17;97354.38;5033454;28;20610;-87
2023/12/22 03:05:33;;;;;;;9.57;3.80;;;;;;;5.10;66.34;97353.53;5015883;28;20637;-87
2023/12/22 03:07:59;;;;;;;23.17;5.93;;;;;;;5.13;65.98;97363.75;5033678;28;20193;-87
2023/12/22 03:10:25;;;;;;;9.83;3.87;;;;;;;5.10;66.28;97354.38;5015522;28;20198;-87
2023/12/22 03:12:50;;;;;;;9.13;3.00;;;;;;;5.18;66.25;97352.19;5033612;28;20173;-87
2023/12/22 03:15:17;;;;;;;11.77;3.80;;;;;;;5.18;65.99;97359.13;5033203;28;20221;-87
2023/12/22 03:17:43;;;;;;;5.23;2.73;;;;;;;5.12;65.70;97368.09;5015909;28;20286;-87
2023/12/22 03:20:09;;;;;;;6.60;2.93;;;;;;;5.03;65.81;97352.25;5015584;28;20254;-86
2023/12/22 03:22:36;;;;;;;11.57;5.53;;;;;;;4.95;65.58;97352.69;5034017;28;20183;-87
2023/12/22 03:25:03;;;;;;;10.83;4.30;;;;;;;4.81;65.68;97350.91;5015702;28;20521;-87
2023/12/22 03:27:29;;;;;;;14.93;5.20;;;;;;;4.84;65.96;97352.47;5032949;28;20517;-86
2023/12/22 03:29:55;;;;;;;13.13;6.30;;;;;;;4.90;65.65;97354.72;5015576;28;20552;-87
2023/12/22 03:32:21;;;;;;;13.17;5.07;;;;;;;4.92;65.08;97345.09;5033399;28;20185;-86
2023/12/22 03:34:47;;;;;;;15.30;6.70;;;;;;;4.96;65.36;97338.78;5015431;28;20187;-87
2023/12/22 03:37:12;;;;;;;12.40;6.73;;;;;;;5.06;64.26;97346.88;5032929;28;20174;-87
2023/12/22 03:39:39;;;;;;;7.87;4.10;;;;;;;5.01;64.46;97351.47;5032941;28;20720;-87
2023/12/22 03:42:05;;;;;;;18.27;5.93;;;;;;;4.88;65.24;97352.22;5015405;28;20569;-87
2023/12/22 03:44:32;;;;;;;13.10;4.60;;;;;;;4.89;65.47;97350.44;5015320;28;20186;-86
2023/12/22 03:46:59;;;;;;;14.40;5.37;;;;;;;4.95;65.49;97350.09;5015570;28;20186;-86
2023/12/22 03:49:26;;;;;;;10.23;5.00;;;;;;;4.93;65.45;97357.13;5015441;28;20181;-87
2023/12/22 03:51:52;;;;;;;8.57;4.67;;;;;;;4.97;65.68;97363.81;5033451;28;20185;-87
2023/12/22 03:54:18;;;;;;;11.73;5.60;;;;;;;4.99;65.69;97356.78;5014794;28;20178;-87
2023/12/22 03:56:44;;;;;;;9.47;5.63;;;;;;;5.02;66.34;97361.78;5015080;28;20655;-87
2023/12/22 03:59:09;;;;;;;10.90;5.30;;;;;;;5.03;65.78;97365.22;5032993;28;20192;-87
2023/12/22 04:01:36;;;;;;;9.63;4.80;;;;;;;5.10;65.67;97376.91;5032852;28;20181;-87
2023/12/22 04:04:02;;;;;;;12.00;5.07;;;;;;;5.20;65.28;97367.66;5033064;28;20177;-87
2023/12/22 04:06:29;;;;;;;10.07;4.43;;;;;;;5.23;65.24;97381.31;5034592;28;20197;-87
2023/12/22 04:08:56;;;;;;;11.73;7.23;;;;;;;5.26;65.59;97385.47;5037158;28;20708;-87
2023/12/22 04:11:21;;;;;;;12.37;6.97;;;;;;;5.20;65.51;97376.28;5036412;28;20187;-87
2023/12/22 04:13:46;;;;;;;10.47;5.87;;;;;;;5.08;65.91;97369.22;5036259;28;20182;-87
2023/12/22 04:16:13;;;;;;;17.10;5.90;;;;;;;5.04;66.27;97351.31;5019063;28;20643;-87
2023/12/22 04:18:39;;;;;;;14.50;7.20;;;;;;;5.13;66.34;97354.22;5036997;28;20444;-87
2023/12/22 04:21:06;;;;;;;12.67;6.13;;;;;;;5.19;66.88;97361.63;5018136;28;20206;-86
2023/12/22 04:23:33;;;;;;;15.03;7.10;;;;;;;5.24;66.69;97351.78;5036679;28;20181;-86
2023/12/22 04:25:58;;;;;;;10.47;6.53;;;;;;;5.34;66.77;97342.53;5018910;28;20201;-87
2023/12/22 04:28:25;;;;;;;11.83;6.13;;;;;;;5.40;66.30;97347.34;5035922;28;20618;-87
2023/12/22 04:30:51;;;;;;;12.50;6.00;;;;;;;5.34;66.09;97347.75;5036219;28;20178;-87
2023/12/22 04:33:17;;;;;;;17.47;7.93;;;;;;;5.14;65.88;97339.44;5036344;28;20206;-87
2023/12/22 04:35:43;;;;;;;14.10;8.53;;;;;;;5.12;65.53;97342.13;5036680;28;20216;-87
2023/12/22 04:38:10;;;;;;;15.77;7.77;;;;;;;5.21;65.73;97341.59;5018661;28;20190;-87
2023/12/22 04:40:36;;;;;;;20.90;7.50;;;;;;;5.28;65.08;97345.50;5036148;28;20202;-87
2023/12/22 04:43:03;;;;;;;16.87;7.27;;;;;;;5.23;64.58;97349.28;5018432;28;20185;-87
2023/12/22 04:45:30;;;;;;;20.50;8.03;;;;;;;5.00;65.02;97349.81;5036528;28;20185;-87
2023/12/22 04:47:57;;;;;;;14.20;6.37;;;;;;;4.84;65.49;97347.28;5018357;28;20193;-87
2023/12/22 04:50:22;;;;;;;16.03;7.33;;;;;;;4.82;65.27;97343.97;5035894;28;20635;-87
2023/12/22 04:52:48;;;;;;;14.50;7.00;;;;;;;4.87;65.38;97344.53;5035049;28;20182;-87
2023/12/22 04:55:15;;;;;;;11.77;5.10;;;;;;;4.96;64.85;97333.59;5035791;28;20220;-87
2023/12/22 04:57:42;;;;;;;12.57;6.43;;;;;;;5.00;64.90;97332.50;5035790;28;20186;-87
2023/12/22 05:00:08;;;;;;;13.57;7.30;;;;;;;4.88;65.16;97347.00;5035895;28;20618;-87
2023/12/22 05:02:33;;;;;;;13.63;5.90;;;;;;;4.94;65.02;97348.41;5018097;28;20554;-86
2023/12/22 05:04:59;;;;;;;12.63;6.10;;;;;;;4.94;65.17;97345.81;5018180;28;20186;-87
2023/12/22 05:07:26;;;;;;;11.23;5.50;;;;;;;4.96;65.75;97331.00;5035564;28;20202;-87
2023/12/22 05:09:54;;;;;;;15.53;6.77;;;;;;;5.12;65.22;97342.13;5035437;28;20190;-87
2023/12/22 05:12:21;;;;;;;17.93;7.03;;;;;;;5.17;64.96;97339.25;5035382;28;20219;-87
2023/12/22 05:14:47;;;;;;;12.87;4.80;;;;;;;5.16;65.29;97338.47;5035227;28;20196;-87
2023/12/22 05:17:14;;;;;;;11.07;5.07;;;;;;;5.17;65.43;97349.66;5017122;28;20264;-87
2023/12/22 05:19:39;;;;;;;12.20;4.43;;;;;;;5.14;65.53;97355.03;5035239;28;20209;-87
2023/12/22 05:22:04;;;;;;;13.70;4.90;;;;;;;5.11;65.67;97344.84;5017730;28;20632;-87
2023/12/22 05:24:30;;;;;;;12.47;4.57;;;;;;;5.20;65.87;97354.66;5016881;28;20175;-86
2023/12/22 05:26:56;;;;;;;16.00;4.97;;;;;;;5.23;65.60;97344.09;5017624;28;20562;-87
2023/12/22 05:29:23;;;;;;;9.83;4.90;;;;;;;5.27;65.33;97351.63;5035331;28;20321;-87
2023/12/22 05:31:50;;;;;;;10.57;5.23;;;;;;;5.24;65.40;97351.78;5035568;28;20364;-87
2023/12/22 05:34:16;;;;;;;9.20;4.60;;;;;;;5.27;65.99;97348.16;5035616;28;20633;-87
2023/12/22 05:36:43;;;;;;;12.73;6.07;;;;;;;5.29;66.16;97354.13;5017523;28;20630;-86
2023/12/22 05:39:10;;;;;;;18.00;8.07;;;;;;;5.22;66.31;97343.25;5017284;28;20550;-86
2023/12/22 05:41:37;;;;;;;22.10;9.00;;;;;;;5.29;66.00;97341.97;5034920;28;20181;-86
2023/12/22 05:44:05;;;;;;;26.00;10.80;;;;;;;5.39;66.03;97350.91;5034765;28;20185;-87
2023/12/22 05:46:36;;;;;;;29.90;17.33;;;;;;;5.46;65.68;97359.97;5035071;28;20178;-86
2023/12/22 05:49:02;;;;;;;17.60;8.97;;;;;;;5.57;65.59;97359.34;5034849;28;20177;-87
2023/12/22 05:51:29;;;;;;;18.83;7.60;;;;;;;5.68;65.03;97351.72;5034620;28;20581;-87
2023/12/22 05:53:55;;;;;;;17.27;8.50;;;;;;;5.72;64.81;97360.16;5016481;28;20182;-87
2023/12/22 05:56:54;;;;;;;20.73;8.53;;;;;;;5.65;65.64;97357.09;5034534;28;20700;-87
2023/12/22 05:59:27;;;;;;;21.43;7.57;;;;;;;5.74;65.12;97355.72;5034159;28;20284;-87
2023/12/22 06:01:57;;;;;;;12.87;6.80;;;;;;;5.78;64.89;97351.97;5016376;28;20271;-86
2023/12/22 06:04:22;;;;;;;14.77;7.03;;;;;;;5.74;64.94;97340.13;5034259;28;20178;-87
2023/12/22 06:06:49;;;;;;;11.23;6.07;;;;;;;5.76;65.32;97338.25;5034668;28;20613;-87
2023/12/22 06:09:15;;;;;;;14.47;6.10;;;;;;;5.78;65.03;97334.63;5034674;28;20189;-87
2023/12/22 06:11:41;;;;;;;9.57;4.67;;;;;;;5.81;65.65;97333.59;5033331;28;20313;-87
2023/12/22 06:14:06;;;;;;;13.93;5.57;;;;;;;5.95;65.58;97338.78;5033948;28;20198;-86
2023/12/22 06:16:32;;;;;;;15.83;6.20;;;;;;;5.98;64.91;97338.59;5016865;28;20203;-87
2023/12/22 06:18:59;;;;;;;13.87;6.80;;;;;;;6.02;64.81;97335.72;5016828;28;20176;-87
2023/12/22 06:21:26;;;;;;;16.77;6.90;;;;;;;6.02;65.33;97334.91;5034068;28;20248;-87
2023/12/22 06:23:51;;;;;;;17.13;7.80;;;;;;;6.06;65.55;97331.16;5034041;28;20514;-87
2023/12/22 06:26:17;;;;;;;19.57;7.77;;;;;;;6.06;65.00;97321.59;5034068;28;20683;-87
2023/12/22 06:28:43;;;;;;;16.43;7.60;;;;;;;5.98;65.67;97320.41;5016579;28;20550;-87
2023/12/22 06:31:20;;;;;;;15.43;6.10;;;;;;;6.00;65.76;97321.16;5016424;28;20186;-86
2023/12/22 06:33:49;;;;;;;24.33;8.70;;;;;;;6.00;65.41;97313.34;5034435;28;20162;-86
2023/12/22 06:36:24;;;;;;;32.30;15.50;;;;;;;6.02;64.87;97314.09;5033334;28;20546;-87
2023/12/22 06:38:53;;;;;;;45.13;18.03;;;;;;;5.99;64.71;97309.91;5034435;28;20609;-87
2023/12/22 06:41:38;;;;;;;47.13;22.93;;;;;;;6.04;64.86;97313.06;5016243;28;20190;-86
2023/12/22 06:44:03;;;;;;;36.13;14.67;;;;;;;6.19;64.95;97321.63;5034383;28;20198;-87
2023/12/22 06:46:30;;;;;;;52.33;23.50;;;;;;;6.19;64.36;97319.03;5033503;28;20202;-86
2023/12/22 06:48:56;;;;;;;72.40;35.90;;;;;;;6.19;64.67;97311.22;5033961;28;20187;-87
2023/12/22 06:51:23;;;;;;;35.47;15.13;;;;;;;6.18;64.00;97320.00;5015500;28;20178;-86
2023/12/22 06:53:49;;;;;;;31.83;13.47;;;;;;;6.26;64.57;97315.13;5033632;28;20174;-86
2023/12/22 06:56:23;;;;;;;28.27;14.60;;;;;;;6.32;64.01;97326.88;5033164;28;20244;-86
2023/12/22 06:59:25;;;;;;;28.53;13.73;;;;;;;6.44;64.42;97326.94;5015233;28;20194;-86
2023/12/22 07:01:52;;;;;;;34.27;13.60;;;;;;;6.55;63.98;97344.47;5033068;28;20236;-87
2023/12/22 07:04:17;;;;;;;32.63;15.80;;;;;;;6.51;64.30;97333.41;5033280;28;20633;-87
2023/12/22 07:06:44;;;;;;;35.87;16.23;;;;;;;6.49;64.18;97339.66;5033235;28;20189;-86
2023/12/22 07:09:19;;;;;;;38.13;16.60;;;;;;;6.48;64.14;97341.41;5015991;28;20248;-87
2023/12/22 07:11:52;;;;;;;39.00;16.83;;;;;;;6.38;65.15;97327.34;4996205;28;20741;-87
2023/12/22 07:14:19;;;;;;;34.23;16.00;;;;;;;6.48;64.75;97336.22;5007541;28;20174;-86
2023/12/22 07:16:44;;;;;;;60.43;21.50;;;;;;;6.53;64.72;97320.28;5015569;28;20544;-86
2023/12/22 07:19:12;;;;;;;36.40;18.20;;;;;;;6.52;65.21;97322.09;5033110;28;20174;-87
2023/12/22 07:21:41;;;;;;;35.20;17.87;;;;;;;6.58;64.81;97313.84;5033726;28;20574;-86
2023/12/22 07:24:08;;;;;;;34.23;16.20;;;;;;;6.54;65.04;97307.19;5015644;28;20182;-86
2023/12/22 07:26:33;;;;;;;28.67;14.10;;;;;;;6.73;64.05;97318.06;5033057;28;20178;-86
2023/12/22 07:29:00;;;;;;;26.97;12.40;;;;;;;6.78;64.12;97313.41;5032425;28;20247;-87
2023/12/22 07:31:25;;;;;;;50.80;20.43;;;;;;;6.81;63.98;97314.97;5032779;28;20179;-86
2023/12/22 07:33:51;;;;;;;47.23;18.30;;;;;;;6.88;63.32;97316.22;5015466;28;20183;-86
2023/12/22 07:36:18;;;;;;;46.33;17.70;;;;;;;6.85;63.34;97310.38;5032921;28;20198;-87
2023/12/22 07:38:44;;;;;;;23.67;10.87;;;;;;;6.99;62.60;97313.72;5032868;28;20193;-87
2023/12/22 07:41:10;;;;;;;23.20;10.30;;;;;;;6.98;62.96;97301.63;5017163;28;20348;-87
2023/12/22 07:43:37;;;;;;;20.80;8.90;;;;;;;7.04;63.37;97313.41;5036795;28;20236;-87
2023/12/22 07:46:03;;;;;;;26.27;10.57;;;;;;;7.11;63.04;97309.44;5019557;28;20197;-87
2023/12/22 07:48:29;;;;;;;26.23;11.27;;;;;;;7.17;63.54;97316.84;5019500;28;20190;-87
2023/12/22 07:50:56;;;;;;;29.13;13.93;;;;;;;7.11;63.09;97312.91;5037835;28;20170;-87
2023/12/22 07:53:21;;;;;;;46.57;20.70;;;;;;;7.18;63.44;97321.97;5019258;28;20185;-87
2023/12/22 07:55:48;;;;;;;37.60;16.33;;;;;;;7.26;63.28;97313.63;5037425;28;20174;-87
2023/12/22 07:58:14;;;;;;;47.63;18.40;;;;;;;7.35;63.20;97313.00;5037143;28;20198;-87
2023/12/22 08:00:40;;;;;;;36.70;17.43;;;;;;;7.34;63.12;97313.94;5036280;28;20321;-87
2023/12/22 08:03:05;;;;;;;41.03;17.53;;;;;;;7.29;62.73;97305.59;5036237;28;20212;-87
2023/12/22 08:05:33;;;;;;;41.13;16.83;;;;;;;7.35;62.72;97305.19;5036698;28;20182;-87
2023/12/22 08:07:59;;;;;;;38.50;19.40;;;;;;;7.38;62.95;97310.19;5036977;28;20618;-87
2023/12/22 08:10:27;;;;;;;43.43;19.50;;;;;;;7.45;63.13;97316.63;5036316;28;20186;-87
2023/12/22 08:12:52;;;;;;;44.40;20.37;;;;;;;7.42;62.75;97307.25;5019341;28;20262;-87
2023/12/22 08:15:18;;;;;;;47.33;21.60;;;;;;;7.47;62.65;97308.72;5019142;28;20277;-87
2023/12/22 08:17:51;;;;;;;52.00;21.40;;;;;;;7.52;62.37;97311.84;5036310;28;20186;-87
2023/12/22 08:20:21;;;;;;;43.10;21.20;;;;;;;7.53;62.60;97319.53;5018950;28;20202;-87
2023/12/22 08:22:50;;;;;;;39.10;19.83;;;;;;;7.63;62.67;97315.34;5035930;28;20194;-87
2023/12/22 08:25:20;;;;;;;39.77;19.07;;;;;;;7.70;62.95;97311.41;5018925;28;20594;-87
2023/12/22 08:27:47;;;;;;;27.27;14.60;;;;;;;7.67;62.37;97305.56;5018863;28;20225;-87
2023/12/22 08:30:14;;;;;;;32.13;16.43;;;;;;;7.79;62.50;97308.13;5018660;28;20626;-87
2023/12/22 08:32:41;;;;;;;32.50;15.43;;;;;;;7.88;62.65;97306.66;5019139;28;20182;-87
2023/12/22 08:35:07;;;;;;;26.93;13.07;;;;;;;7.92;62.99;97300.28;5036048;28;20673;-87
2023/12/22 08:37:34;;;;;;;24.87;12.93;;;;;;;8.05;62.35;97306.28;5019019;28;20261;-87
2023/12/22 08:39:59;;;;;;;42.33;17.03;;;;;;;8.13;62.03;97306.56;5036123;28;20221;-87
2023/12/22 08:42:26;;;;;;;53.20;21.47;;;;;;;8.26;61.84;97311.72;5018688;28;20615;-87
2023/12/22 08:44:52;;;;;;;54.40;21.70;;;;;;;8.30;62.81;97310.63;5035382;28;20175;-87
2023/12/22 08:47:18;;;;;;;47.43;20.97;;;;;;;8.38;62.08;97305.66;5018410;28;20182;-87
2023/12/22 08:49:45;;;;;;;41.03;20.63;;;;;;;8.38;62.33;97310.91;5035784;28;20175;-87
2023/12/22 08:52:13;;;;;;;42.87;18.97;;;;;;;8.41;62.04;97308.06;5017659;28;20629;-87
2023/12/22 08:54:39;;;;;;;36.83;18.27;;;;;;;8.48;62.29;97312.72;5018290;28;20242;-87
2023/12/22 08:57:06;;;;;;;68.63;30.90;;;;;;;8.62;61.68;97314.31;5036299;28;20180;-86
2023/12/22 08:59:33;;;;;;;41.63;20.83;;;;;;;8.67;60.67;97320.03;5035371;28;20183;-87
2023/12/22 09:01:59;;;;;;;32.13;15.20;;;;;;;8.69;60.55;97322.53;5018238;28;20206;-87
2023/12/22 09:04:26;;;;;;;27.33;11.40;;;;;;;8.73;60.67;97318.72;5035651;28;20717;-87
2023/12/22 09:06:52;;;;;;;34.37;13.60;;;;;;;8.77;60.26;97318.41;5034993;28;20190;-87
2023/12/22 09:09:21;;;;;;;16.17;8.10;;;;;;;8.90;60.60;97313.94;5018106;28;20586;-86
2023/12/22 09:11:47;;;;;;;22.50;10.37;;;;;;;9.00;60.24;97301.84;5035346;28;20261;-87
2023/12/22 09:14:14;;;;;;;23.17;10.67;;;;;;;9.07;59.84;97307.44;5035293;28;20209;-87
2023/12/22 09:16:42;;;;;;;21.83;10.63;;;;;;;9.17;60.22;97308.41;5035357;28;20665;-87
2023/12/22 09:19:08;;;;;;;19.60;9.23;;;;;;;9.25;60.09;97311.25;5035302;28;20196;-87
2023/12/22 09:21:35;;;;;;;28.30;12.83;;;;;;;9.31;60.50;97304.72;5017640;28;20210;-87
2023/12/22 09:24:00;;;;;;;30.10;12.70;;;;;;;9.35;60.52;97298.34;5017840;28;20637;-87
2023/12/22 09:26:27;;;;;;;24.07;11.97;;;;;;;9.39;60.20;97294.53;5035797;28;20224;-87
2023/12/22 09:28:53;;;;;;;75.73;31.17;;;;;;;9.40;59.49;97296.19;5017530;28;20178;-87
2023/12/22 09:31:22;;;;;;;64.03;26.93;;;;;;;9.44;59.60;97298.44;5017656;28;20293;-87
2023/12/22 09:33:48;;;;;;;50.43;21.00;;;;;;;9.48;59.90;97285.97;5018481;28;20185;-87
2023/12/22 09:36:15;;;;;;;62.57;22.13;;;;;;;9.57;59.30;97287.88;5034934;28;20185;-87
2023/12/22 09:38:41;;;;;;;58.47;21.50;;;;;;;9.64;58.70;97283.84;5017972;28;20236;-87
2023/12/22 09:41:08;;;;;;;52.17;19.77;;;;;;;9.73;58.55;97280.50;5017481;28;20232;-87
2023/12/22 09:43:38;;;;;;;51.27;22.57;;;;;;;9.74;58.40;97283.00;5034716;28;20178;-87
2023/12/22 09:46:07;;;;;;;42.20;19.30;;;;;;;9.90;58.24;97282.63;5034876;28;20193;-87
2023/12/22 09:48:37;;;;;;;48.00;18.93;;;;;;;9.94;58.18;97270.09;5034809;28;20177;-87
2023/12/22 09:51:06;;;;;;;47.50;21.00;;;;;;;9.99;58.74;97265.34;5018321;28;20163;-87
2023/12/22 09:53:33;;;;;;;45.27;21.90;;;;;;;10.04;58.48;97258.78;5017563;28;20576;-87
2023/12/22 09:55:59;;;;;;;38.03;20.77;;;;;;;10.01;58.61;97259.03;5034952;28;20223;-87
2023/12/22 09:58:25;;;;;;;42.23;18.23;;;;;;;10.05;58.31;97251.78;5034615;28;20178;-87
2023/12/22 10:00:52;;;;;;;55.27;20.17;;;;;;;9.98;57.63;97253.22;5035260;28;20199;-87
2023/12/22 10:03:20;;;;;;;60.87;22.53;;;;;;;10.00;57.87;97241.69;5016650;28;20186;-88
2023/12/22 10:05:46;;;;;;;56.50;22.00;;;;;;;10.10;57.51;97233.91;5017069;28;20265;-88
2023/12/22 10:08:14;;;;;;;41.40;18.23;;;;;;;10.21;57.23;97229.50;5030189;28;20185;-88
2023/12/22 10:10:46;;;;;;;38.57;17.47;;;;;;;10.23;56.73;97232.00;5033206;28;20209;-87
2023/12/22 10:13:12;;;;;;;38.07;17.50;;;;;;;10.21;57.72;97223.44;5017587;28;20186;-87
2023/12/22 10:15:43;;;;;;;26.30;13.63;;;;;;;10.11;58.14;97233.81;5034078;28;20614;-88
2023/12/22 10:18:10;;;;;;;17.00;8.83;;;;;;;10.17;57.83;97235.09;5017124;28;20181;-87
2023/12/22 10:20:36;;;;;;;18.83;8.47;;;;;;;10.22;57.62;97241.63;5016800;28;20285;-88
2023/12/22 10:23:03;;;;;;;13.73;6.43;;;;;;;10.26;57.07;97237.81;5016755;28;20186;-87
2023/12/22 10:25:29;;;;;;;10.33;4.87;;;;;;;10.21;56.09;97237.38;5034429;28;20553;-88
2023/12/22 10:27:56;;;;;;;9.93;4.63;;;;;;;10.27;55.82;97231.59;5016140;28;20629;-87
2023/12/22 10:30:24;;;;;;;9.57;3.90;;;;;;;10.29;55.93;97221.88;5034027;28;20171;-88
2023/12/22 10:32:51;;;;;;;13.00;5.87;;;;;;;10.32;56.09;97224.25;5016205;28;20193;-88
2023/12/22 10:35:20;;;;;;;16.30;7.47;;;;;;;10.41;56.33;97226.09;5016525;28;20265;-88
2023/12/22 10:37:47;;;;;;;25.50;8.67;;;;;;;10.46;57.33;97217.84;5033902;28;20269;-88
2023/12/22 10:40:15;;;;;;;15.17;6.60;;;;;;;10.30;57.03;97217.44;5017196;28;20633;-87
2023/12/22 10:42:41;;;;;;;17.27;7.57;;;;;;;10.31;57.51;97213.88;5033599;28;20198;-88
2023/12/22 10:45:07;;;;;;;17.33;6.73;;;;;;;10.35;57.39;97216.09;5017166;28;20661;-88
2023/12/22 10:47:34;;;;;;;18.57;7.93;;;;;;;10.37;57.31;97213.38;5016344;28;20186;-88
2023/12/22 10:50:04;;;;;;;11.50;5.60;;;;;;;10.41;57.23;97206.91;5017388;28;20257;-88
2023/12/22 10:52:30;;;;;;;11.40;6.87;;;;;;;10.47;56.82;97204.63;5016404;28;20589;-88
2023/12/22 10:54:58;;;;;;;14.43;6.93;;;;;;;10.46;56.54;97213.44;5016050;28;20184;-87
2023/12/22 10:57:23;;;;;;;15.83;7.57;;;;;;;10.51;56.86;97212.25;5016180;28;20202;-88
2023/12/22 10:59:49;;;;;;;15.63;7.83;;;;;;;10.51;57.30;97209.63;5016132;28;20236;-88
2023/12/22 11:02:19;;;;;;;19.60;8.27;;;;;;;10.49;57.79;97207.13;5016069;28;20187;-88
2023/12/22 11:04:56;;;;;;;31.93;13.83;;;;;;;10.45;58.61;97210.97;5016372;28;20204;-88
2023/12/22 11:07:24;;;;;;;39.90;20.23;;;;;;;10.54;58.75;97211.97;5016894;28;20208;-88
2023/12/22 11:09:54;;;;;;;40.20;19.17;;;;;;;10.37;59.60;97202.91;5016473;28;20186;-88
2023/12/22 11:12:23;;;;;;;42.97;17.97;;;;;;;10.31;60.34;97206.00;5033774;28;20307;-87
2023/12/22 11:14:50;;;;;;;34.47;16.40;;;;;;;10.36;60.62;97204.69;5032738;28;20193;-88
2023/12/22 11:17:21;;;;;;;42.27;16.70;;;;;;;10.44;60.88;97210.13;5033121;28;20174;-88
2023/12/22 11:19:50;;;;;;;36.30;18.20;;;;;;;10.47;61.29;97209.03;5016259;28;20206;-88
2023/12/22 11:22:18;;;;;;;41.10;17.90;;;;;;;10.50;61.55;97203.56;5015645;28;20210;-88
2023/12/22 11:24:48;;;;;;;38.60;18.60;;;;;;;10.59;61.93;97207.16;5015769;28;20182;-88
2023/12/22 11:27:19;;;;;;;39.67;18.50;;;;;;;10.63;62.03;97206.81;5033395;28;20208;-88
2023/12/22 11:29:49;;;;;;;47.40;19.70;;;;;;;10.69;62.42;97201.03;5016300;28;20602;-87
2023/12/22 11:32:16;;;;;;;22.97;11.23;;;;;;;10.64;61.84;97202.41;5033058;28;20660;-88